Time;durP1;ratioP1;P1;durP2;ratioP2;P2;SDS_P1;SDS_P2;PMS_P1;PMS_P2;Temp;Humidity;BMP_temperature;BMP_pressure;BME280_temperature;BME280_humidity;BME280_pressure;Samples;Min_cycle;Max_cycle;Signal;HPM_P1;HPM_P2
2021/12/29 00:00:52;;;;;;;4.32;1.48;;;15.00;59.60;;;;;;5117238;28;20019;-38
2021/12/29 00:03:18;;;;;;;2.38;1.02;;;15.00;59.70;;;;;;5098777;28;20039;-38
2021/12/29 00:05:44;;;;;;;3.45;1.38;;;15.00;59.70;;;;;;5117069;28;20028;-38
2021/12/29 00:08:10;;;;;;;2.63;1.30;;;15.00;59.70;;;;;;5117710;28;20470;-41
2021/12/29 00:10:36;;;;;;;3.42;1.35;;;15.00;59.60;;;;;;5117473;28;20020;-39
2021/12/29 00:13:04;;;;;;;3.22;1.13;;;15.00;59.60;;;;;;5115869;28;20027;-40
2021/12/29 00:15:30;;;;;;;2.10;1.20;;;15.00;59.70;;;;;;5114484;28;20018;-38
2021/12/29 00:17:57;;;;;;;3.60;1.27;;;15.00;59.60;;;;;;5117846;28;20054;-39
2021/12/29 00:20:28;;;;;;;2.72;1.30;;;15.00;59.70;;;;;;5118110;28;20035;-39
2021/12/29 00:23:04;;;;;;;4.13;1.40;;;15.00;59.60;;;;;;5100206;28;20098;-42
2021/12/29 00:25:30;;;;;;;2.60;1.35;;;14.90;59.50;;;;;;5082907;28;20012;-39
2021/12/29 00:27:59;;;;;;;2.80;1.20;;;14.90;59.60;;;;;;5118290;28;20020;-39
2021/12/29 00:30:25;;;;;;;3.05;1.35;;;14.90;59.70;;;;;;5117797;28;20137;-39
2021/12/29 00:32:51;;;;;;;3.03;1.20;;;14.90;59.60;;;;;;5099777;28;20118;-41
2021/12/29 00:35:17;;;;;;;4.78;1.20;;;14.90;59.60;;;;;;5099434;28;20023;-39
2021/12/29 00:37:45;;;;;;;5.28;1.40;;;14.90;59.50;;;;;;5099885;28;20024;-42
2021/12/29 00:40:11;;;;;;;2.78;1.15;;;14.90;59.60;;;;;;5117826;28;20086;-39
2021/12/29 00:42:38;;;;;;;2.03;1.15;;;14.90;59.60;;;;;;5118107;28;20019;-39
2021/12/29 00:45:05;;;;;;;2.38;1.40;;;14.90;59.50;;;;;;5083113;28;20062;-40
2021/12/29 00:47:34;;;;;;;3.15;1.30;;;14.90;59.50;;;;;;5117700;28;20026;-40
2021/12/29 00:50:01;;;;;;;2.28;1.20;;;14.90;59.50;;;;;;5117737;28;20496;-44
2021/12/29 00:52:27;;;;;;;2.60;1.20;;;14.90;59.50;;;;;;5117718;28;20032;-40
2021/12/29 00:54:52;;;;;;;2.90;1.20;;;14.90;59.60;;;;;;5099652;28;20068;-39
2021/12/29 00:57:19;;;;;;;2.80;1.20;;;14.90;59.50;;;;;;5117847;28;20015;-39
2021/12/29 00:59:45;;;;;;;2.63;1.30;;;14.90;59.40;;;;;;5118098;28;20040;-40
2021/12/29 01:02:11;;;;;;;1.90;1.00;;;14.90;59.40;;;;;;5118102;28;20023;-41
2021/12/29 01:04:37;;;;;;;3.63;1.10;;;14.90;59.40;;;;;;5118021;28;20098;-41
2021/12/29 01:07:04;;;;;;;2.45;1.33;;;14.90;59.40;;;;;;5118211;28;20076;-41
2021/12/29 01:09:30;;;;;;;3.47;1.52;;;14.90;59.40;;;;;;5118513;28;20019;-42
2021/12/29 01:11:58;;;;;;;2.45;1.15;;;14.90;59.40;;;;;;5118175;28;20046;-42
2021/12/29 01:14:25;;;;;;;2.10;0.93;;;14.90;59.40;;;;;;5118549;28;20024;-41
2021/12/29 01:16:51;;;;;;;3.20;1.42;;;14.90;59.50;;;;;;5118862;28;20039;-40
2021/12/29 01:19:20;;;;;;;1.90;1.17;;;14.90;59.50;;;;;;5119091;28;20015;-44
2021/12/29 01:21:48;;;;;;;3.50;1.30;;;14.90;59.50;;;;;;5118745;28;20015;-41
2021/12/29 01:24:14;;;;;;;2.55;1.00;;;14.90;59.40;;;;;;5118375;28;20008;-40
2021/12/29 01:26:42;;;;;;;2.28;1.10;;;14.90;59.40;;;;;;5117875;28;20473;-38
2021/12/29 01:29:09;;;;;;;2.72;1.10;;;14.90;59.40;;;;;;5116749;28;20501;-39
2021/12/29 01:31:35;;;;;;;3.40;1.10;;;14.90;59.40;;;;;;5118932;28;20091;-39
2021/12/29 01:34:04;;;;;;;3.67;1.40;;;14.90;59.30;;;;;;5119163;28;20022;-40
2021/12/29 01:36:31;;;;;;;2.20;1.10;;;14.90;59.30;;;;;;5100739;28;20012;-39
2021/12/29 01:38:57;;;;;;;3.63;1.20;;;15.00;59.40;;;;;;5118122;28;20015;-39
2021/12/29 01:41:24;;;;;;;1.80;1.15;;;14.90;59.30;;;;;;5117343;28;20050;-38
2021/12/29 01:43:50;;;;;;;3.58;1.20;;;14.90;59.30;;;;;;5117044;28;20015;-41
2021/12/29 01:46:15;;;;;;;3.20;1.20;;;14.90;59.40;;;;;;5116083;28;20086;-40
2021/12/29 01:48:42;;;;;;;2.38;1.02;;;14.90;59.30;;;;;;5116469;28;20077;-39
2021/12/29 01:51:08;;;;;;;2.65;1.20;;;14.90;59.30;;;;;;5116300;28;20027;-38
2021/12/29 01:53:36;;;;;;;2.35;1.00;;;14.90;59.30;;;;;;5116211;28;20036;-38
2021/12/29 01:56:02;;;;;;;2.35;1.10;;;14.90;59.40;;;;;;5116724;28;20008;-38
2021/12/29 01:58:28;;;;;;;2.05;1.00;;;14.90;59.30;;;;;;5099501;28;20493;-39
2021/12/29 02:00:55;;;;;;;3.17;1.15;;;14.90;59.30;;;;;;5117547;28;20020;-38
2021/12/29 02:03:21;;;;;;;1.90;1.02;;;14.90;59.40;;;;;;5117986;28;20019;-39
2021/12/29 02:05:48;;;;;;;2.42;1.08;;;14.90;59.40;;;;;;5118355;28;20517;-40
2021/12/29 02:08:22;;;;;;;3.08;1.17;;;14.90;59.30;;;;;;5119046;28;20085;-40
2021/12/29 02:10:48;;;;;;;3.10;1.30;;;14.90;59.40;;;;;;5118796;28;20024;-38
2021/12/29 02:13:16;;;;;;;1.70;1.08;;;14.90;59.30;;;;;;5119529;28;20020;-38
2021/12/29 02:15:42;;;;;;;3.03;1.10;;;14.90;59.20;;;;;;5120035;28;20020;-38
2021/12/29 02:18:14;;;;;;;1.88;1.00;;;14.90;59.20;;;;;;5120578;28;20048;-39
2021/12/29 02:20:44;;;;;;;2.20;1.00;;;14.90;59.20;;;;;;5121303;28;20039;-40
2021/12/29 02:23:18;;;;;;;2.75;1.00;;;14.90;59.30;;;;;;5120590;28;20008;-40
2021/12/29 02:25:51;;;;;;;1.73;1.00;;;14.90;59.80;;;;;;5120782;28;20043;-43
2021/12/29 02:28:26;;;;;;;2.50;1.33;;;14.80;59.30;;;;;;5120400;28;20069;-42
2021/12/29 02:30:52;;;;;;;2.40;0.93;;;14.80;59.30;;;;;;5119289;28;20481;-40
2021/12/29 02:33:18;;;;;;;2.35;1.15;;;14.80;59.30;;;;;;5119566;28;20047;-38
2021/12/29 02:35:47;;;;;;;2.60;1.20;;;14.80;59.30;;;;;;5119249;28;20444;-40
2021/12/29 02:38:36;;;;;;;1.67;1.00;;;14.80;59.30;;;;;;5119791;28;20024;-39
2021/12/29 02:41:40;;;;;;;1.88;0.95;;;14.80;59.30;;;;;;5119498;28;20026;-39
2021/12/29 02:44:15;;;;;;;2.08;1.00;;;14.80;59.90;;;;;;5017166;28;20056;-39
2021/12/29 02:46:49;;;;;;;2.47;1.30;;;14.80;59.30;;;;;;5017186;28;20053;-39
2021/12/29 02:49:20;;;;;;;2.72;1.67;;;14.80;59.30;;;;;;5016061;28;20026;-43
2021/12/29 02:51:49;;;;;;;2.42;1.10;;;14.80;59.20;;;;;;5016530;28;20061;-38
2021/12/29 02:54:32;;;;;;;1.20;0.85;;;14.80;59.20;;;;;;5015850;28;20022;-38
2021/12/29 02:57:05;;;;;;;2.40;0.90;;;14.80;59.30;;;;;;5001068;28;20026;-39
2021/12/29 02:59:31;;;;;;;1.70;1.20;;;14.80;59.30;;;;;;5015081;28;20120;-38
2021/12/29 03:02:01;;;;;;;2.42;1.10;;;14.80;59.20;;;;;;5014665;28;20037;-40
2021/12/29 03:04:30;;;;;;;1.90;0.98;;;14.80;59.20;;;;;;5014292;28;20045;-38
2021/12/29 03:06:58;;;;;;;1.48;0.98;;;14.80;59.20;;;;;;5014203;28;20029;-38
2021/12/29 03:09:25;;;;;;;2.10;0.90;;;14.80;59.20;;;;;;5014607;28;20111;-39
2021/12/29 03:11:51;;;;;;;2.08;1.00;;;14.80;59.20;;;;;;5014623;28;20057;-39
2021/12/29 03:14:20;;;;;;;2.03;1.00;;;14.80;59.30;;;;;;5013846;28;20465;-38
2021/12/29 03:16:46;;;;;;;2.28;1.13;;;14.70;59.20;;;;;;5013434;28;20054;-39
2021/12/29 03:19:13;;;;;;;2.33;1.10;;;14.80;59.30;;;;;;5095590;28;20048;-40
2021/12/29 03:21:39;;;;;;;2.55;1.00;;;14.80;59.20;;;;;;5116002;28;20023;-39
2021/12/29 03:27:06;;;;;;;1.45;0.90;;;14.80;59.20;;;;;;5033557;28;20025;-39
2021/12/29 03:29:43;;;;;;;2.00;0.90;;;14.80;59.20;;;;;;5018935;28;20237;-40
2021/12/29 03:32:20;;;;;;;2.05;1.00;;;14.80;59.20;;;;;;5033916;28;20034;-39
2021/12/29 03:34:52;;;;;;;2.13;1.05;;;14.80;59.10;;;;;;5019241;28;20025;-42
2021/12/29 03:37:21;;;;;;;2.05;0.98;;;14.80;59.10;;;;;;5033496;28;20018;-44
2021/12/29 03:39:54;;;;;;;1.98;0.98;;;14.80;59.20;;;;;;5032786;28;20029;-42
2021/12/29 03:42:35;;;;;;;1.98;0.80;;;14.80;59.20;;;;;;5033591;28;20104;-39
2021/12/29 03:45:01;;;;;;;2.10;1.00;;;14.80;59.20;;;;;;5033256;28;20189;-40
2021/12/29 03:48:08;;;;;;;1.60;1.00;;;14.80;59.20;;;;;;5033386;28;20113;-38
2021/12/29 03:50:34;;;;;;;1.95;1.00;;;14.70;59.20;;;;;;4965514;28;20046;-39
2021/12/29 03:53:03;;;;;;;3.05;1.10;;;14.70;59.20;;;;;;4977151;28;20039;-40
2021/12/29 03:55:29;;;;;;;1.88;0.80;;;14.70;59.10;;;;;;4978618;28;20058;-38
2021/12/29 03:57:55;;;;;;;2.03;0.90;;;14.70;59.10;;;;;;4978124;28;20061;-39
2021/12/29 04:00:22;;;;;;;2.35;1.00;;;14.70;59.20;;;;;;4978990;28;20122;-40
2021/12/29 04:02:51;;;;;;;2.17;1.00;;;14.80;59.20;;;;;;4977740;28;20026;-38
2021/12/29 04:05:24;;;;;;;2.03;1.00;;;14.70;59.10;;;;;;5036390;28;20611;-39
2021/12/29 04:07:53;;;;;;;2.40;0.90;;;14.70;59.10;;;;;;5036553;28;20033;-43
2021/12/29 04:10:19;;;;;;;1.90;0.95;;;14.70;59.10;;;;;;5036383;28;20057;-38
2021/12/29 04:12:49;;;;;;;2.03;1.00;;;14.70;59.10;;;;;;5036599;28;20508;-39
2021/12/29 04:15:15;;;;;;;1.63;1.00;;;14.70;59.20;;;;;;5038298;28;20079;-39
2021/12/29 04:17:44;;;;;;;2.30;1.00;;;14.70;59.10;;;;;;5038347;28;20579;-38
2021/12/29 04:23:11;;;;;;;1.65;0.90;;;14.70;59.10;;;;;;5038733;28;20064;-40
2021/12/29 04:25:40;;;;;;;3.53;1.38;;;14.70;59.10;;;;;;5038099;28;20075;-40
2021/12/29 04:28:15;;;;;;;1.80;1.00;;;14.70;59.60;;;;;;5107184;28;20031;-40
2021/12/29 04:30:44;;;;;;;2.35;0.90;;;14.70;59.10;;;;;;5119896;28;20034;-38
2021/12/29 04:33:10;;;;;;;1.90;1.00;;;14.70;59.10;;;;;;5102231;28;20061;-42
2021/12/29 04:35:45;;;;;;;1.55;1.00;;;14.70;59.10;;;;;;5103048;28;20011;-40
2021/12/29 04:38:24;;;;;;;1.40;0.90;;;14.70;59.00;;;;;;5116391;28;20032;-39
2021/12/29 04:40:50;;;;;;;1.35;0.85;;;14.70;59.10;;;;;;5102605;28;20020;-39
2021/12/29 04:43:19;;;;;;;1.90;1.10;;;14.70;59.10;;;;;;5083320;28;20018;-38
2021/12/29 04:45:57;;;;;;;1.42;0.90;;;14.70;59.10;;;;;;5117479;28;20037;-38
2021/12/29 04:48:37;;;;;;;2.28;1.13;;;14.70;59.00;;;;;;5118156;28;20020;-39
2021/12/29 04:51:15;;;;;;;1.63;0.85;;;14.70;59.00;;;;;;5117855;28;20054;-38
2021/12/29 04:53:44;;;;;;;2.17;0.90;;;14.70;59.00;;;;;;5099091;28;20039;-38
2021/12/29 04:56:12;;;;;;;2.75;1.10;;;14.70;58.90;;;;;;5081706;28;20032;-41
2021/12/29 04:58:41;;;;;;;1.77;0.90;;;14.70;59.00;;;;;;5117548;28;20022;-37
2021/12/29 05:01:07;;;;;;;1.23;0.88;;;14.70;58.90;;;;;;5098104;28;20110;-39
2021/12/29 05:03:36;;;;;;;1.35;0.80;;;14.70;59.00;;;;;;5081205;28;20112;-38
2021/12/29 05:08:33;;;;;;;1.73;0.80;;;14.70;58.90;;;;;;5117291;28;20030;-38
2021/12/29 05:11:32;;;;;;;1.50;0.90;;;14.70;59.00;;;;;;5116632;28;20050;-40
2021/12/29 05:14:04;;;;;;;1.55;0.82;;;14.70;58.90;;;;;;5014830;28;20117;-38
2021/12/29 05:16:39;;;;;;;1.77;1.00;;;14.70;59.00;;;;;;5015391;28;20049;-37
2021/12/29 05:19:22;;;;;;;1.55;1.00;;;14.70;59.00;;;;;;5014990;28;20038;-39
2021/12/29 05:22:04;;;;;;;1.77;0.88;;;14.60;59.00;;;;;;5014477;28;20028;-38
2021/12/29 05:24:32;;;;;;;1.15;0.80;;;14.60;58.90;;;;;;5013611;28;20030;-38
2021/12/29 05:26:59;;;;;;;1.92;0.90;;;14.60;59.00;;;;;;5013814;28;20048;-39
2021/12/29 05:29:28;;;;;;;1.70;0.85;;;14.60;58.90;;;;;;4981430;28;20065;-38
2021/12/29 05:31:54;;;;;;;1.63;0.90;;;14.70;58.90;;;;;;5013674;28;20026;-38
2021/12/29 05:34:19;;;;;;;1.35;0.88;;;14.70;59.00;;;;;;5014186;28;20037;-38
2021/12/29 05:36:54;;;;;;;2.03;0.90;;;14.70;58.80;;;;;;4997543;28;20021;-38
2021/12/29 05:39:20;;;;;;;2.03;0.80;;;14.70;59.40;;;;;;5014152;28;20022;-38
2021/12/29 05:42:06;;;;;;;1.15;0.82;;;14.70;58.80;;;;;;5014179;28;20471;-38
2021/12/29 05:44:32;;;;;;;1.35;0.80;;;14.60;58.80;;;;;;5014297;28;20034;-38
2021/12/29 05:46:58;;;;;;;2.00;1.00;;;14.60;58.90;;;;;;5014664;28;20022;-38
2021/12/29 05:49:24;;;;;;;1.30;0.70;;;14.70;58.90;;;;;;5014401;28;20033;-39
2021/12/29 05:51:51;;;;;;;1.33;0.88;;;14.60;58.80;;;;;;5101274;28;20104;-39
2021/12/29 05:54:17;;;;;;;1.75;0.85;;;14.70;58.70;;;;;;5116037;28;20003;-39
2021/12/29 05:56:46;;;;;;;1.33;0.90;;;14.70;58.80;;;;;;5116194;28;20015;-38
2021/12/29 05:59:13;;;;;;;1.60;1.00;;;14.60;58.80;;;;;;5115382;28;20035;-38
2021/12/29 06:01:57;;;;;;;1.17;0.80;;;14.60;58.80;;;;;;5098307;28;20014;-39
2021/12/29 06:04:23;;;;;;;1.67;1.05;;;14.60;58.90;;;;;;5098327;28;20037;-38
2021/12/29 06:07:16;;;;;;;1.75;0.77;;;14.60;58.80;;;;;;5098026;28;20012;-38
2021/12/29 06:09:42;;;;;;;1.40;0.90;;;14.60;58.80;;;;;;5013278;28;20029;-39
2021/12/29 06:12:09;;;;;;;1.40;0.70;;;14.60;58.80;;;;;;5013121;28;20221;-37
2021/12/29 06:14:35;;;;;;;1.75;0.80;;;14.60;58.90;;;;;;5011003;28;20109;-38
2021/12/29 06:17:01;;;;;;;1.42;0.70;;;14.60;58.90;;;;;;5010556;28;20021;-38
2021/12/29 06:19:27;;;;;;;0.90;0.80;;;14.60;58.90;;;;;;4959613;28;20105;-38
2021/12/29 06:21:53;;;;;;;2.42;0.90;;;14.60;58.80;;;;;;4975790;28;20027;-38
2021/12/29 06:24:18;;;;;;;1.60;0.90;;;14.60;58.80;;;;;;4975868;28;20413;-38
2021/12/29 06:26:44;;;;;;;2.50;0.80;;;14.60;58.70;;;;;;4992057;28;20080;-38
2021/12/29 06:29:11;;;;;;;1.17;0.70;;;14.60;58.80;;;;;;4992978;28;20425;-38
2021/12/29 06:31:37;;;;;;;2.03;0.90;;;14.60;58.90;;;;;;4992572;28;20018;-40
2021/12/29 06:34:02;;;;;;;2.10;0.98;;;14.60;58.90;;;;;;4992261;28;20448;-38
2021/12/29 06:36:29;;;;;;;2.22;1.02;;;14.60;58.90;;;;;;4992440;28;20081;-39
2021/12/29 06:38:55;;;;;;;1.42;0.82;;;14.60;58.90;;;;;;4976305;28;20019;-38
2021/12/29 06:41:21;;;;;;;1.13;0.80;;;14.50;58.90;;;;;;4976020;28;20412;-39
2021/12/29 06:43:47;;;;;;;3.10;1.00;;;14.60;59.00;;;;;;4975963;28;20033;-38
2021/12/29 06:46:14;;;;;;;1.70;0.98;;;14.60;59.00;;;;;;5003861;28;20036;-39
2021/12/29 06:48:40;;;;;;;1.23;0.80;;;14.60;58.90;;;;;;5073685;28;20028;-38
2021/12/29 06:51:06;;;;;;;1.42;0.80;;;14.60;58.90;;;;;;5073613;28;20021;-38
2021/12/29 06:53:32;;;;;;;1.83;0.88;;;14.60;58.90;;;;;;5073387;28;20032;-38
2021/12/29 06:55:59;;;;;;;1.42;0.80;;;14.60;59.00;;;;;;5073502;28;20033;-40
2021/12/29 06:58:25;;;;;;;1.25;0.70;;;14.50;58.90;;;;;;5073665;28;20016;-39
2021/12/29 07:00:51;;;;;;;1.70;0.77;;;14.50;58.90;;;;;;5072618;28;20025;-40
2021/12/29 07:03:17;;;;;;;1.17;0.70;;;14.60;58.80;;;;;;5073879;28;20013;-38
2021/12/29 07:05:44;;;;;;;1.67;0.98;;;14.50;58.90;;;;;;5073249;28;20441;-38
2021/12/29 07:08:10;;;;;;;1.73;0.90;;;14.50;58.90;;;;;;5073418;28;20044;-38
2021/12/29 07:10:36;;;;;;;2.45;1.25;;;14.50;58.90;;;;;;5072258;28;20044;-40
2021/12/29 07:13:01;;;;;;;2.22;0.93;;;14.50;58.90;;;;;;5073228;28;20394;-38
2021/12/29 07:15:28;;;;;;;1.25;0.70;;;14.50;58.90;;;;;;5072242;28;20074;-38
2021/12/29 07:17:54;;;;;;;1.42;0.80;;;14.50;58.90;;;;;;5090191;28;20035;-38
2021/12/29 07:20:19;;;;;;;1.27;0.90;;;14.50;58.90;;;;;;5114145;28;20462;-38
2021/12/29 07:22:45;;;;;;;1.23;0.82;;;14.50;58.90;;;;;;5095737;28;20016;-38
2021/12/29 07:25:12;;;;;;;1.50;0.90;;;14.50;58.90;;;;;;5115320;28;20023;-38
2021/12/29 07:27:38;;;;;;;1.55;0.80;;;14.50;58.90;;;;;;5117592;28;20016;-38
2021/12/29 07:30:04;;;;;;;1.55;0.80;;;14.50;58.90;;;;;;5099234;28;20026;-39
2021/12/29 07:32:31;;;;;;;1.52;0.70;;;14.50;58.90;;;;;;5117091;28;20024;-38
2021/12/29 07:34:57;;;;;;;1.70;0.88;;;14.50;58.80;;;;;;5117236;28;20012;-38
2021/12/29 07:37:23;;;;;;;2.30;0.82;;;14.50;58.80;;;;;;5099367;28;20012;-39
2021/12/29 07:39:55;;;;;;;2.03;0.95;;;14.50;58.90;;;;;;5099261;28;20024;-38
2021/12/29 07:42:26;;;;;;;2.03;1.00;;;14.50;58.90;;;;;;5117126;28;20032;-38
2021/12/29 07:44:53;;;;;;;1.27;0.73;;;14.50;58.80;;;;;;5117245;28;20101;-38
2021/12/29 07:47:19;;;;;;;1.73;0.90;;;14.50;58.90;;;;;;5117593;28;20024;-38
2021/12/29 07:49:56;;;;;;;1.23;0.70;;;14.50;58.90;;;;;;5117343;28;20386;-38
2021/12/29 07:52:34;;;;;;;2.75;0.90;;;14.50;58.90;;;;;;5117080;28;20137;-38
2021/12/29 07:55:08;;;;;;;1.67;0.95;;;14.50;59.00;;;;;;5098653;28;20016;-38
2021/12/29 07:57:37;;;;;;;2.83;1.00;;;14.50;58.90;;;;;;5117032;28;20030;-39
2021/12/29 08:00:03;;;;;;;1.65;0.80;;;14.50;59.00;;;;;;5103126;28;20057;-39
2021/12/29 08:02:29;;;;;;;1.67;1.00;;;14.50;59.00;;;;;;5103474;28;20047;-39
2021/12/29 08:04:55;;;;;;;1.25;0.85;;;14.40;58.90;;;;;;5122039;28;20374;-38
2021/12/29 08:07:21;;;;;;;1.50;0.90;;;14.50;59.00;;;;;;5122547;28;20024;-38
2021/12/29 08:09:52;;;;;;;0.80;0.60;;;14.50;59.00;;;;;;5122565;28;20027;-39
2021/12/29 08:12:18;;;;;;;1.33;0.85;;;14.40;59.00;;;;;;5120769;28;20028;-38
2021/12/29 08:14:45;;;;;;;2.22;0.85;;;14.40;59.00;;;;;;5116994;28;20458;-38
2021/12/29 08:17:11;;;;;;;2.40;1.10;;;14.50;59.00;;;;;;5116716;28;20019;-38
2021/12/29 08:19:41;;;;;;;2.22;0.98;;;14.50;58.90;;;;;;5116778;28;20060;-38
2021/12/29 08:22:14;;;;;;;2.78;1.00;;;14.50;58.90;;;;;;5082368;28;20160;-38
2021/12/29 08:24:39;;;;;;;2.42;1.33;;;14.50;58.90;;;;;;5116653;28;20012;-39
2021/12/29 08:27:05;;;;;;;1.50;1.00;;;14.50;58.90;;;;;;5116527;28;20400;-39
2021/12/29 08:29:31;;;;;;;2.35;0.95;;;14.50;58.90;;;;;;5116154;28;20098;-42
2021/12/29 08:31:57;;;;;;;1.98;0.90;;;14.50;59.00;;;;;;5098262;28;20016;-40
2021/12/29 08:34:24;;;;;;;1.83;0.80;;;14.40;59.00;;;;;;5098054;28;20032;-39
2021/12/29 08:36:49;;;;;;;1.67;0.90;;;14.50;58.90;;;;;;5097154;28;20011;-39
2021/12/29 08:39:18;;;;;;;2.00;0.80;;;14.50;58.90;;;;;;5097808;28;20094;-39
2021/12/29 08:41:45;;;;;;;2.15;1.10;;;14.40;59.00;;;;;;5115864;28;20023;-39
2021/12/29 08:44:11;;;;;;;2.75;0.85;;;14.50;58.90;;;;;;5097684;28;20026;-38
2021/12/29 08:46:37;;;;;;;2.35;0.80;;;14.40;59.00;;;;;;5097854;28;20022;-38
2021/12/29 08:49:03;;;;;;;2.17;0.88;;;14.50;59.10;;;;;;5098142;28;20027;-38
2021/12/29 08:51:29;;;;;;;2.70;1.10;;;14.50;59.00;;;;;;5097897;28;20072;-38
2021/12/29 08:53:57;;;;;;;2.78;1.08;;;14.40;58.90;;;;;;5097314;28;20483;-38
2021/12/29 08:56:23;;;;;;;2.85;1.30;;;14.50;59.00;;;;;;5097631;28;20019;-38
2021/12/29 08:58:49;;;;;;;1.60;0.80;;;14.50;58.90;;;;;;5117408;28;20102;-38
2021/12/29 09:01:16;;;;;;;3.05;1.20;;;14.50;58.90;;;;;;5116979;28;20018;-38
2021/12/29 09:03:42;;;;;;;2.53;1.05;;;14.40;59.00;;;;;;5098669;28;20028;-40
2021/12/29 09:06:08;;;;;;;1.48;0.82;;;14.40;59.00;;;;;;5082318;28;20050;-39
2021/12/29 09:08:34;;;;;;;2.58;1.10;;;14.50;59.00;;;;;;5117444;28;20090;-38
2021/12/29 09:11:00;;;;;;;4.10;1.30;;;14.50;59.00;;;;;;5099511;28;20079;-38
2021/12/29 09:13:26;;;;;;;3.15;1.05;;;14.50;59.00;;;;;;5117339;28;20024;-39
2021/12/29 09:15:56;;;;;;;3.88;1.10;;;14.50;59.00;;;;;;5117000;28;20024;-38
2021/12/29 09:18:23;;;;;;;4.23;1.20;;;14.40;59.00;;;;;;5117144;28;20040;-38
2021/12/29 09:20:50;;;;;;;4.20;1.10;;;14.40;59.60;;;;;;5117156;28;20684;-38
2021/12/29 09:23:16;;;;;;;3.85;1.35;;;14.40;59.10;;;;;;5117109;28;20018;-39
2021/12/29 09:25:43;;;;;;;7.40;1.67;;;14.40;59.10;;;;;;5117390;28;20031;-39
2021/12/29 09:28:09;;;;;;;3.78;1.00;;;14.40;59.00;;;;;;5117602;28;20015;-37
2021/12/29 09:30:37;;;;;;;3.05;1.00;;;14.40;59.10;;;;;;5117913;28;20145;-39
2021/12/29 09:33:03;;;;;;;4.18;1.15;;;14.40;59.10;;;;;;5117763;28;20027;-39
2021/12/29 09:35:31;;;;;;;5.85;1.45;;;14.40;59.20;;;;;;5099355;28;20043;-38
2021/12/29 09:37:56;;;;;;;9.95;1.50;;;14.50;59.20;;;;;;5098949;28;20078;-38
2021/12/29 09:40:22;;;;;;;5.90;1.50;;;14.40;59.10;;;;;;5117125;28;20046;-45
2021/12/29 09:42:49;;;;;;;5.13;1.27;;;14.40;59.20;;;;;;5099686;28;20062;-38
2021/12/29 09:45:15;;;;;;;10.80;1.75;;;14.50;59.10;;;;;;5099719;28;20085;-38
2021/12/29 09:47:41;;;;;;;9.88;1.52;;;14.40;59.10;;;;;;5117235;28;20032;-48
2021/12/29 09:50:12;;;;;;;4.25;1.30;;;14.40;59.20;;;;;;5116724;28;20104;-38
2021/12/29 09:52:39;;;;;;;6.07;1.85;;;14.50;59.20;;;;;;5117127;28;20024;-38
2021/12/29 09:55:09;;;;;;;7.88;2.05;;;14.50;59.20;;;;;;5099552;28;20027;-38
2021/12/29 09:57:44;;;;;;;8.88;1.70;;;14.50;59.20;;;;;;5116806;28;20134;-38
2021/12/29 10:00:30;;;;;;;7.72;2.20;;;14.50;59.20;;;;;;5116537;28;20031;-38
2021/12/29 10:02:58;;;;;;;5.72;1.75;;;14.50;59.20;;;;;;5115950;28;20115;-42
2021/12/29 10:05:27;;;;;;;6.35;1.80;;;14.50;59.10;;;;;;5081936;28;20129;-39
2021/12/29 10:08:02;;;;;;;7.38;2.25;;;14.50;59.30;;;;;;5116968;28;20023;-38
2021/12/29 10:10:36;;;;;;;6.63;1.70;;;14.50;59.10;;;;;;5131064;27;20386;-66
2021/12/29 10:13:02;;;;;;;7.85;1.77;;;14.50;59.20;;;;;;5112821;28;20022;-66
2021/12/29 10:15:39;;;;;;;7.70;1.80;;;14.50;59.30;;;;;;5112937;28;20016;-66
2021/12/29 10:18:12;;;;;;;5.60;1.73;;;14.40;59.20;;;;;;5131108;28;20012;-66
2021/12/29 10:21:03;;;;;;;8.93;2.13;;;14.40;59.20;;;;;;5131037;28;20012;-67
2021/12/29 10:23:31;;;;;;;8.18;2.10;;;14.40;59.20;;;;;;5129483;28;20015;-66
2021/12/29 10:26:36;;;;;;;7.90;1.92;;;14.40;59.40;;;;;;5131025;28;20032;-66
2021/12/29 10:29:07;;;;;;;10.45;1.90;;;14.40;59.40;;;;;;5047482;28;20036;-67
2021/12/29 10:31:40;;;;;;;8.48;1.95;;;14.50;60.00;;;;;;5047678;28;20116;-65
2021/12/29 10:34:09;;;;;;;7.97;1.90;;;14.40;59.30;;;;;;5047428;28;20049;-65
2021/12/29 10:36:41;;;;;;;9.18;2.72;;;14.40;59.40;;;;;;5047373;28;20017;-67
2021/12/29 10:39:14;;;;;;;6.95;1.80;;;14.40;59.40;;;;;;5047398;28;20025;-65
2021/12/29 10:41:52;;;;;;;6.63;1.90;;;14.50;59.40;;;;;;5047232;28;20079;-65
2021/12/29 10:44:36;;;;;;;5.38;1.70;;;14.40;59.40;;;;;;5047186;28;20083;-66
2021/12/29 10:47:19;;;;;;;7.60;1.95;;;14.50;59.40;;;;;;5047159;28;20132;-66
2021/12/29 10:50:06;;;;;;;6.25;2.35;;;14.50;59.50;;;;;;5047318;28;20031;-66
2021/12/29 10:52:34;;;;;;;6.30;1.98;;;14.50;59.50;;;;;;5030718;28;20488;-66
2021/12/29 10:55:01;;;;;;;7.60;2.17;;;14.40;59.50;;;;;;5047114;28;20022;-66
2021/12/29 10:57:27;;;;;;;7.97;1.90;;;14.40;59.50;;;;;;5047469;28;20069;-66
2021/12/29 10:59:58;;;;;;;7.47;2.00;;;14.40;59.60;;;;;;5046887;28;20471;-66
2021/12/29 11:02:28;;;;;;;8.38;2.33;;;14.40;59.50;;;;;;5047146;28;20025;-66
2021/12/29 11:04:59;;;;;;;9.38;2.80;;;14.40;59.70;;;;;;5098916;28;20076;-66
2021/12/29 11:07:29;;;;;;;7.22;2.08;;;14.50;59.60;;;;;;5129936;28;20004;-65
2021/12/29 11:09:56;;;;;;;6.75;1.75;;;14.50;59.70;;;;;;5129526;28;20622;-66
2021/12/29 11:12:23;;;;;;;8.25;1.90;;;14.50;59.80;;;;;;5112213;28;20036;-66
2021/12/29 11:14:53;;;;;;;7.55;2.05;;;14.40;59.60;;;;;;5129805;28;20542;-66
2021/12/29 11:17:24;;;;;;;7.47;2.20;;;14.50;59.60;;;;;;5129742;28;20464;-66
2021/12/29 11:19:56;;;;;;;7.13;2.03;;;14.40;59.50;;;;;;5128422;28;20257;-65
2021/12/29 11:22:27;;;;;;;11.38;2.83;;;14.40;59.50;;;;;;5097491;28;20028;-65
2021/12/29 11:24:58;;;;;;;8.75;2.13;;;14.40;59.50;;;;;;5115790;28;20012;-66
2021/12/29 11:27:25;;;;;;;;;;;14.50;59.70;;;;;;5116228;28;20098;-66
2021/12/29 11:29:59;;;;;;;10.15;2.55;;;14.50;59.70;;;;;;5114594;28;19911;-66
2021/12/29 11:32:37;;;;;;;9.00;1.90;;;14.50;59.80;;;;;;5097906;28;20072;-65
2021/12/29 11:35:17;;;;;;;6.00;2.13;;;14.40;59.80;;;;;;5115780;28;20008;-65
2021/12/29 11:37:44;;;;;;;7.55;2.17;;;14.50;59.80;;;;;;5097528;28;20016;-65
2021/12/29 11:40:11;;;;;;;8.10;2.00;;;14.50;59.90;;;;;;5115560;28;20018;-66
2021/12/29 11:42:38;;;;;;;7.38;1.65;;;14.40;59.90;;;;;;5097634;28;20015;-66
2021/12/29 11:45:05;;;;;;;8.10;2.40;;;14.40;59.90;;;;;;5097453;28;20020;-66
2021/12/29 11:47:30;;;;;;;7.03;2.42;;;14.40;60.00;;;;;;5115562;28;20093;-65
2021/12/29 11:49:58;;;;;;;8.27;2.20;;;14.40;59.90;;;;;;5097262;28;20080;-65
2021/12/29 11:52:42;;;;;;;7.75;2.10;;;14.50;60.00;;;;;;5115345;28;20064;-65
2021/12/29 11:55:13;;;;;;;8.73;2.33;;;14.40;60.00;;;;;;5115249;28;20022;-65
2021/12/29 11:57:39;;;;;;;8.13;2.22;;;14.40;60.00;;;;;;5115444;28;20012;-65
2021/12/29 12:00:17;;;;;;;5.97;2.05;;;14.40;60.10;;;;;;5115236;28;20016;-65
2021/12/29 12:02:44;;;;;;;8.00;2.10;;;14.40;60.20;;;;;;5115197;28;20027;-65
2021/12/29 12:05:12;;;;;;;6.53;1.90;;;14.50;60.30;;;;;;5097038;28;20027;-65
2021/12/29 12:07:38;;;;;;;9.18;2.35;;;14.50;60.30;;;;;;5115267;28;20058;-65
2021/12/29 12:10:09;;;;;;;6.20;2.08;;;14.50;60.10;;;;;;5096549;28;20454;-65
2021/12/29 12:12:46;;;;;;;6.45;2.03;;;14.60;59.90;;;;;;5114891;28;20008;-65
2021/12/29 12:15:12;;;;;;;7.78;1.90;;;14.60;59.60;;;;;;5114915;28;20019;-65
2021/12/29 12:17:39;;;;;;;8.90;3.08;;;14.80;59.20;;;;;;5115103;28;20144;-65
2021/12/29 12:20:07;;;;;;;6.68;1.90;;;14.90;58.60;;;;;;5115084;28;20513;-65
2021/12/29 12:22:44;;;;;;;6.85;1.92;;;15.00;58.50;;;;;;5114800;28;20102;-65
2021/12/29 12:25:10;;;;;;;7.30;1.95;;;15.00;58.10;;;;;;5114642;28;20062;-65
2021/12/29 12:27:41;;;;;;;7.28;2.03;;;15.10;58.00;;;;;;5114949;28;20102;-65
2021/12/29 12:30:16;;;;;;;5.28;1.85;;;15.20;57.90;;;;;;5114570;28;20020;-65
2021/12/29 12:32:56;;;;;;;6.53;1.70;;;15.20;57.70;;;;;;5113708;28;20042;-65
2021/12/29 12:35:28;;;;;;;5.68;2.05;;;15.30;57.50;;;;;;5115073;28;20011;-65
2021/12/29 12:37:54;;;;;;;4.97;1.90;;;15.30;57.30;;;;;;5114872;28;20018;-65
2021/12/29 12:40:25;;;;;;;7.00;2.00;;;15.30;57.30;;;;;;5115557;28;20048;-65
2021/12/29 12:43:26;;;;;;;6.25;1.60;;;15.40;57.30;;;;;;5126541;28;20466;-65
2021/12/29 12:45:52;;;;;;;5.70;1.67;;;15.40;57.40;;;;;;5029919;28;20025;-65
2021/12/29 12:48:26;;;;;;;8.40;2.22;;;15.40;57.30;;;;;;5047374;28;20067;-65
2021/12/29 12:50:51;;;;;;;5.65;1.70;;;15.40;57.20;;;;;;5050712;28;20021;-65
2021/12/29 12:53:30;;;;;;;4.15;1.58;;;15.40;57.20;;;;;;5048485;28;20038;-65
2021/12/29 12:55:57;;;;;;;6.93;2.03;;;15.40;57.00;;;;;;5049403;28;20009;-65
2021/12/29 12:58:25;;;;;;;4.95;1.88;;;15.50;56.90;;;;;;5014667;28;20570;-65
2021/12/29 13:00:56;;;;;;;5.28;1.80;;;15.50;56.90;;;;;;5049936;28;20026;-65
2021/12/29 13:03:23;;;;;;;6.35;1.67;;;15.50;57.00;;;;;;5048262;28;20022;-65
2021/12/29 13:05:55;;;;;;;6.05;1.80;;;15.50;56.90;;;;;;5045987;28;20026;-65
2021/12/29 13:08:23;;;;;;;4.15;1.42;;;15.60;56.90;;;;;;5036391;28;20494;-65